Terminal Aerodrome Forecast
Issued by NWS Pendleton, OR

Home | Current Version | Previous Version | Text Only | Print | Product List | Glossary On
Versions: 1 2 3 4 5 6 7 8 9 10 11 12
511
FTUS46 KPDT 030520
TAFPDT
TAF
KPDT 030520Z 0306/0406 12006KT P6SM SKC
     FM031500 VRB05KT P6SM SCT250
     FM031900 34007KT P6SM FEW120 SCT250
     FM032300 04010KT P6SM SCT120 BKN200
     FM040300 12006KT P6SM BKN120=

USA.gov is the U.S. government's official web portal to all federal, state and local government web resources and services.